Time;durP1;ratioP1;P1;durP2;ratioP2;P2;SDS_P1;SDS_P2;PMS_P1;PMS_P2;Temp;Humidity;BMP_temperature;BMP_pressure;BME280_temperature;BME280_humidity;BME280_pressure;Samples;Min_cycle;Max_cycle;Signal;HPM_P1;HPM_P2
2022/07/06 00:03:38;;;;;;;1.42;0.93;;;22.00;55.70;;;;;;10412976;28;20030;-52
2022/07/06 00:08:39;;;;;;;1.83;0.88;;;22.00;55.70;;;;;;10411790;28;20116;-53
2022/07/06 00:13:40;;;;;;;1.25;0.73;;;22.00;55.70;;;;;;10397196;28;20070;-51
2022/07/06 00:18:40;;;;;;;2.42;1.08;;;22.00;55.80;;;;;;10396990;28;20037;-52
2022/07/06 00:23:42;;;;;;;2.75;1.20;;;22.00;55.70;;;;;;10399186;28;20044;-53
2022/07/06 00:28:42;;;;;;;1.98;0.88;;;22.00;55.80;;;;;;10403502;28;20040;-54
2022/07/06 00:33:43;;;;;;;1.67;0.82;;;22.00;55.70;;;;;;10405454;28;20036;-51
2022/07/06 00:38:44;;;;;;;1.80;0.80;;;22.00;55.70;;;;;;10389006;28;20041;-53
2022/07/06 00:43:55;;;;;;;2.38;1.25;;;22.00;55.70;;;;;;10374083;28;20026;-53
2022/07/06 00:48:55;;;;;;;1.25;0.70;;;22.00;55.60;;;;;;10387230;28;20086;-53
2022/07/06 00:54:02;;;;;;;1.27;0.80;;;21.90;55.60;;;;;;10386197;28;20441;-51
2022/07/06 00:59:03;;;;;;;1.27;0.90;;;21.90;55.70;;;;;;10394747;28;20033;-54
2022/07/06 01:04:03;;;;;;;1.40;0.90;;;21.90;55.60;;;;;;10410005;28;20034;-53
2022/07/06 01:09:05;;;;;;;1.45;0.80;;;21.90;55.60;;;;;;10409185;28;20075;-52
2022/07/06 01:14:07;;;;;;;2.05;0.85;;;21.90;55.70;;;;;;10408365;28;20040;-51
2022/07/06 01:19:08;;;;;;;1.20;1.02;;;21.90;55.70;;;;;;10391552;28;20113;-53
2022/07/06 01:24:09;;;;;;;1.42;0.88;;;21.90;55.90;;;;;;10367015;28;20032;-52
2022/07/06 01:29:09;;;;;;;1.35;0.70;;;21.90;55.70;;;;;;10375768;28;20874;-52
2022/07/06 01:34:11;;;;;;;1.13;0.80;;;21.90;55.60;;;;;;10403344;28;20052;-51
2022/07/06 01:39:12;;;;;;;1.33;0.68;;;21.80;55.60;;;;;;10384686;28;20033;-51
2022/07/06 01:44:13;;;;;;;1.13;0.70;;;21.90;55.50;;;;;;10374451;28;20068;-54
2022/07/06 01:49:13;;;;;;;2.45;1.00;;;21.80;56.10;;;;;;10403312;28;20040;-52
2022/07/06 01:54:14;;;;;;;1.63;0.80;;;21.80;55.60;;;;;;10392166;28;20044;-52
2022/07/06 01:59:15;;;;;;;1.48;0.93;;;21.80;55.60;;;;;;10393078;28;20090;-52
2022/07/06 02:04:16;;;;;;;1.33;0.80;;;21.80;55.60;;;;;;10390087;28;20022;-54
2022/07/06 02:09:16;;;;;;;1.27;0.75;;;21.80;55.70;;;;;;10380672;28;20044;-54
2022/07/06 02:14:17;;;;;;;1.77;1.25;;;21.80;55.70;;;;;;10379054;28;20034;-52
2022/07/06 02:19:18;;;;;;;2.10;1.88;;;21.80;55.60;;;;;;10367124;28;20041;-55
2022/07/06 02:24:19;;;;;;;1.77;1.08;;;21.80;55.60;;;;;;10366950;28;20120;-50
2022/07/06 02:29:20;;;;;;;1.35;0.90;;;21.80;56.30;;;;;;10373974;28;20432;-52
2022/07/06 02:34:20;;;;;;;1.13;0.73;;;21.80;55.60;;;;;;10405941;28;20029;-53
2022/07/06 02:39:21;;;;;;;1.30;0.70;;;21.70;55.50;;;;;;10415067;28;20050;-52
2022/07/06 02:44:22;;;;;;;1.33;0.70;;;21.80;55.50;;;;;;10401633;28;20116;-57
2022/07/06 02:49:22;;;;;;;1.48;1.23;;;21.80;55.60;;;;;;10396227;28;20426;-54
2022/07/06 02:54:23;;;;;;;2.35;0.88;;;21.70;55.50;;;;;;10400760;28;20029;-52
2022/07/06 02:59:24;;;;;;;1.45;0.65;;;21.70;55.60;;;;;;10414458;28;20037;-53
2022/07/06 03:04:25;;;;;;;0.98;0.65;;;21.70;55.70;;;;;;10415221;28;20481;-51
2022/07/06 03:09:26;;;;;;;1.42;0.90;;;21.70;55.70;;;;;;10414134;28;20508;-52
2022/07/06 03:14:27;;;;;;;2.42;0.73;;;21.70;55.70;;;;;;10399719;28;20433;-51
2022/07/06 03:19:27;;;;;;;0.80;0.63;;;21.70;55.70;;;;;;10400261;28;20114;-51
2022/07/06 03:24:28;;;;;;;2.38;0.88;;;21.70;55.80;;;;;;10411915;28;20454;-54
2022/07/06 03:29:29;;;;;;;0.85;0.60;;;21.70;55.70;;;;;;10392230;28;20443;-51
2022/07/06 03:34:30;;;;;;;1.75;0.70;;;21.70;55.70;;;;;;10411145;28;20132;-50
2022/07/06 03:39:30;;;;;;;1.25;0.82;;;21.60;55.60;;;;;;10401117;28;20038;-53
2022/07/06 03:44:31;;;;;;;1.15;0.70;;;21.60;55.70;;;;;;10380291;28;20021;-53
2022/07/06 03:49:32;;;;;;;0.90;0.60;;;21.60;55.70;;;;;;10408575;28;20038;-53
2022/07/06 03:54:32;;;;;;;1.30;0.80;;;21.60;55.70;;;;;;10371148;28;20034;-49
2022/07/06 03:59:33;;;;;;;1.08;0.70;;;21.60;55.80;;;;;;10372054;28;20117;-51
2022/07/06 04:04:34;;;;;;;1.55;0.70;;;21.60;55.90;;;;;;10370732;28;20033;-53
2022/07/06 04:09:35;;;;;;;1.85;0.50;;;21.60;56.20;;;;;;10404012;28;20041;-53
2022/07/06 04:14:36;;;;;;;1.50;0.47;;;21.60;56.30;;;;;;10412475;28;20627;-53
2022/07/06 04:19:36;;;;;;;0.90;0.50;;;21.60;56.40;;;;;;10381590;28;20117;-51
2022/07/06 04:24:37;;;;;;;1.60;0.80;;;21.60;56.60;;;;;;10371233;28;20093;-51
2022/07/06 04:29:38;;;;;;;0.90;0.70;;;21.60;56.20;;;;;;10369818;28;20033;-53
2022/07/06 04:34:38;;;;;;;0.90;0.55;;;21.60;56.40;;;;;;10399414;28;20033;-53
2022/07/06 04:39:39;;;;;;;1.45;0.82;;;21.60;56.60;;;;;;10369439;28;20106;-53
2022/07/06 04:44:40;;;;;;;1.58;0.85;;;21.60;56.70;;;;;;10394941;28;20104;-53
2022/07/06 04:49:40;;;;;;;1.08;0.80;;;21.60;57.00;;;;;;10397331;28;20033;-51
2022/07/06 04:54:41;;;;;;;3.95;2.10;;;21.60;57.00;;;;;;10369934;28;20388;-50
2022/07/06 04:59:42;;;;;;;5.03;1.75;;;21.60;57.90;;;;;;10388234;28;20544;-51
2022/07/06 05:04:42;;;;;;;7.38;1.80;;;21.60;58.50;;;;;;10373190;28;20516;-49
2022/07/06 05:09:43;;;;;;;4.93;1.80;;;21.70;58.40;;;;;;10390353;28;20531;-48
2022/07/06 05:14:44;;;;;;;10.98;2.15;;;21.70;58.70;;;;;;10376654;28;20037;-50
2022/07/06 05:19:45;;;;;;;12.15;1.77;;;21.80;59.00;;;;;;10369144;28;20121;-51
2022/07/06 05:24:45;;;;;;;10.25;2.30;;;21.80;59.50;;;;;;10377024;28;20032;-53
2022/07/06 05:29:46;;;;;;;22.35;2.88;;;21.80;59.90;;;;;;10380209;28;20037;-47
2022/07/06 05:34:47;;;;;;;12.00;2.47;;;21.80;59.90;;;;;;10397515;28;20053;-51
2022/07/06 05:39:49;;;;;;;7.72;1.75;;;21.80;60.00;;;;;;10379044;28;20043;-50
2022/07/06 05:44:50;;;;;;;8.75;1.55;;;21.80;59.80;;;;;;10381436;28;20033;-52
2022/07/06 05:55:11;;;;;;;;;;;21.70;60.00;;;;;;10397080;28;20045;-54
2022/07/06 06:00:12;;;;;;;11.63;2.13;;;21.70;59.80;;;;;;10373319;28;20286;-53
2022/07/06 06:05:14;;;;;;;14.02;2.47;;;21.70;59.80;;;;;;10389049;28;20034;-50
2022/07/06 06:10:15;;;;;;;9.45;2.78;;;21.70;59.70;;;;;;10373485;28;20187;-50
2022/07/06 06:15:17;;;;;;;11.38;2.28;;;21.70;59.90;;;;;;10371622;28;20026;-48
2022/07/06 06:20:17;;;;;;;6.28;2.33;;;21.70;59.70;;;;;;10377217;28;20041;-51
2022/07/06 06:25:26;;;;;;;7.68;1.67;;;21.60;59.90;;;;;;10366383;28;20155;-51
2022/07/06 06:30:27;;;;;;;8.38;1.88;;;21.70;59.70;;;;;;10371041;28;20025;-58
2022/07/06 06:35:28;;;;;;;9.38;2.70;;;21.60;59.30;;;;;;10377952;28;20517;-48
2022/07/06 06:40:28;;;;;;;11.45;1.98;;;21.60;59.50;;;;;;10383000;28;20044;-49
2022/07/06 06:45:29;;;;;;;10.70;1.90;;;21.60;59.50;;;;;;10376122;28;20045;-46
2022/07/06 06:50:30;;;;;;;6.15;1.52;;;21.60;59.50;;;;;;10389177;28;20346;-46
2022/07/06 06:55:31;;;;;;;8.07;1.48;;;21.60;59.10;;;;;;10379970;28;20176;-49
2022/07/06 07:00:31;;;;;;;6.60;1.10;;;21.60;59.10;;;;;;10390568;28;20092;-49
2022/07/06 07:05:32;;;;;;;6.50;1.58;;;21.60;59.20;;;;;;10364049;28;20037;-50
2022/07/06 07:10:33;;;;;;;5.57;1.17;;;21.60;58.90;;;;;;10365152;28;20053;-49
2022/07/06 07:15:34;;;;;;;8.07;1.60;;;21.60;58.90;;;;;;10371199;28;20071;-48
2022/07/06 07:20:34;;;;;;;4.50;1.48;;;21.60;59.10;;;;;;10380649;28;20051;-49
2022/07/06 07:25:38;;;;;;;6.13;1.55;;;21.60;58.80;;;;;;10399197;28;20036;-48
2022/07/06 07:30:39;;;;;;;5.47;1.10;;;21.60;58.80;;;;;;10400087;28;20025;-48
2022/07/06 07:35:39;;;;;;;8.57;1.38;;;21.60;58.70;;;;;;10394787;28;20047;-46
2022/07/06 07:40:40;;;;;;;5.28;1.17;;;21.60;58.70;;;;;;10372612;28;20161;-47
2022/07/06 07:45:41;;;;;;;4.85;1.15;;;21.60;58.70;;;;;;10385345;28;20040;-46
2022/07/06 07:50:42;;;;;;;5.15;1.02;;;21.60;58.50;;;;;;10389248;28;20026;-49
2022/07/06 07:55:43;;;;;;;6.45;0.80;;;21.70;58.30;;;;;;10391316;28;20030;-49
2022/07/06 08:00:44;;;;;;;3.42;1.02;;;21.70;58.20;;;;;;10387710;28;20029;-53
2022/07/06 08:05:46;;;;;;;3.78;1.05;;;21.60;58.30;;;;;;10387180;28;20045;-49
2022/07/06 08:10:47;;;;;;;7.82;1.15;;;21.60;57.10;;;;;;10379698;28;20041;-50
2022/07/06 08:15:48;;;;;;;4.88;0.60;;;21.60;55.80;;;;;;10386891;28;20489;-51
2022/07/06 08:20:49;;;;;;;1.80;0.50;;;21.60;54.20;;;;;;10385611;28;20037;-51
2022/07/06 08:25:50;;;;;;;2.38;0.57;;;21.60;53.60;;;;;;10391264;28;20156;-50
2022/07/06 08:30:50;;;;;;;1.63;0.60;;;21.60;53.20;;;;;;10379031;28;20116;-50
2022/07/06 08:35:51;;;;;;;2.60;0.73;;;21.60;52.90;;;;;;10384381;28;20425;-48
2022/07/06 08:40:52;;;;;;;0.85;0.40;;;21.60;52.80;;;;;;10393288;28;20045;-46
2022/07/06 08:45:54;;;;;;;5.07;0.70;;;21.60;52.40;;;;;;10384493;28;20034;-48
2022/07/06 08:50:54;;;;;;;2.30;0.50;;;21.60;52.50;;;;;;10387478;28;20042;-48
2022/07/06 08:55:55;;;;;;;2.17;0.70;;;21.60;53.00;;;;;;10383818;28;20034;-47
2022/07/06 09:00:57;;;;;;;2.88;0.73;;;21.60;52.90;;;;;;10369051;28;20456;-49
2022/07/06 09:06:01;;;;;;;2.97;0.88;;;21.60;52.80;;;;;;10394752;28;20201;-50
2022/07/06 09:11:03;;;;;;;3.17;0.60;;;21.60;52.60;;;;;;10372392;28;20042;-47
2022/07/06 09:16:12;;;;;;;3.20;0.70;;;21.60;52.90;;;;;;10371849;28;20034;-47
2022/07/06 09:21:31;;;;;;;;;;;21.60;52.90;;;;;;10392948;28;20041;-48
2022/07/06 09:26:33;;;;;;;4.45;0.75;;;21.60;53.30;;;;;;10382090;28;19917;-49
2022/07/06 09:31:34;;;;;;;1.92;0.80;;;21.60;53.60;;;;;;10393352;28;20440;-49
2022/07/06 09:36:45;;;;;;;3.10;0.60;;;21.60;53.90;;;;;;10389483;28;20096;-47
2022/07/06 09:41:48;;;;;;;3.78;0.80;;;21.60;54.00;;;;;;10402353;28;20095;-48
2022/07/06 09:46:50;;;;;;;1.75;0.40;;;21.60;53.90;;;;;;10390926;28;20185;-49
2022/07/06 09:51:57;;;;;;;1.85;0.57;;;21.60;53.90;;;;;;10386687;28;20115;-48
2022/07/06 09:56:59;;;;;;;2.78;0.60;;;21.60;54.10;;;;;;10385827;28;20033;-47
2022/07/06 10:02:03;;;;;;;2.38;0.68;;;21.60;54.30;;;;;;10406907;28;20665;-51
2022/07/06 10:07:05;;;;;;;1.95;0.50;;;21.60;54.50;;;;;;10405695;28;20555;-51
2022/07/06 10:12:10;;;;;;;3.53;0.52;;;21.60;54.40;;;;;;10390812;28;20037;-50
2022/07/06 10:17:12;;;;;;;1.23;0.50;;;21.60;54.70;;;;;;10377433;28;20021;-48
2022/07/06 10:22:14;;;;;;;4.40;0.57;;;21.60;54.90;;;;;;10381686;28;20104;-49
2022/07/06 10:27:15;;;;;;;3.85;0.98;;;21.60;54.90;;;;;;10380860;28;20501;-48
2022/07/06 10:32:20;;;;;;;4.75;1.23;;;21.60;55.90;;;;;;10380444;28;20449;-49
2022/07/06 10:37:28;;;;;;;1.77;0.30;;;21.60;56.20;;;;;;10385329;28;20038;-47
2022/07/06 10:42:54;;;;;;;1.67;0.50;;;21.70;55.40;;;;;;10391805;28;20037;-47
2022/07/06 10:48:34;;;;;;;2.03;0.60;;;21.60;55.30;;;;;;10368836;28;20630;-47
2022/07/06 10:53:40;;;;;;;2.53;0.80;;;21.70;55.60;;;;;;10390595;28;20069;-51
2022/07/06 10:58:50;;;;;;;1.88;0.60;;;21.70;55.60;;;;;;10414669;28;20037;-48
2022/07/06 11:03:57;;;;;;;1.95;0.95;;;21.70;55.40;;;;;;10397889;28;20033;-48
2022/07/06 11:09:08;;;;;;;5.93;0.88;;;21.70;55.60;;;;;;10399682;28;20034;-47
2022/07/06 11:14:11;;;;;;;8.60;1.08;;;21.70;55.00;;;;;;10374714;28;20088;-48
2022/07/06 11:19:18;;;;;;;10.45;1.23;;;21.70;53.90;;;;;;10378965;28;20560;-48
2022/07/06 11:24:28;;;;;;;5.32;1.02;;;21.80;54.30;;;;;;10387856;28;20026;-48
2022/07/06 11:29:30;;;;;;;2.60;0.68;;;21.80;53.90;;;;;;10386149;28;20155;-48
2022/07/06 11:34:33;;;;;;;4.10;0.85;;;21.70;53.80;;;;;;10387031;28;20030;-46
2022/07/06 11:39:45;;;;;;;6.30;0.85;;;21.80;53.30;;;;;;10385198;28;20026;-48
2022/07/06 11:44:46;;;;;;;5.82;0.90;;;21.80;53.20;;;;;;10390393;28;20405;-49
2022/07/06 11:49:50;;;;;;;7.47;1.50;;;21.80;53.20;;;;;;10387855;28;20029;-46
2022/07/06 11:54:58;;;;;;;2.97;0.77;;;21.80;53.20;;;;;;10385212;28;20560;-47
2022/07/06 11:59:59;;;;;;;4.25;0.95;;;21.80;53.10;;;;;;10373920;28;20068;-47
2022/07/06 12:05:00;;;;;;;3.95;1.00;;;21.80;53.40;;;;;;10401481;28;20159;-47
2022/07/06 12:10:01;;;;;;;3.85;0.80;;;21.80;53.70;;;;;;10396949;28;20029;-47
2022/07/06 12:15:01;;;;;;;3.20;0.60;;;21.90;53.80;;;;;;10388207;28;20104;-50
2022/07/06 12:20:02;;;;;;;8.93;1.60;;;21.90;54.00;;;;;;10379694;28;20096;-51
2022/07/06 12:25:05;;;;;;;10.18;2.05;;;21.90;54.20;;;;;;10395465;28;20048;-53
2022/07/06 12:30:11;;;;;;;4.80;1.70;;;21.90;54.20;;;;;;10390632;28;20029;-52
2022/07/06 12:35:12;;;;;;;9.32;1.40;;;21.90;53.30;;;;;;10407565;28;20431;-53
2022/07/06 12:40:14;;;;;;;5.63;1.10;;;21.80;53.10;;;;;;10369409;28;20030;-53
2022/07/06 12:45:15;;;;;;;8.90;1.52;;;21.80;53.00;;;;;;10380481;28;20034;-54
2022/07/06 12:50:16;;;;;;;7.35;1.40;;;21.80;52.90;;;;;;10391870;28;20101;-54
2022/07/06 12:55:17;;;;;;;6.20;1.17;;;21.80;52.40;;;;;;10375087;28;20033;-55
2022/07/06 13:00:18;;;;;;;6.72;0.93;;;21.80;52.50;;;;;;10397904;28;20049;-53
2022/07/06 13:05:27;;;;;;;3.70;0.90;;;21.80;52.40;;;;;;10386569;28;20030;-53
2022/07/06 13:10:30;;;;;;;;;;;21.80;52.10;;;;;;10383595;28;20029;-55
2022/07/06 13:15:32;;;;;;;3.13;1.25;;;21.70;51.80;;;;;;10387536;28;19951;-55
2022/07/06 13:20:32;;;;;;;5.55;1.58;;;21.70;52.00;;;;;;10385806;28;20041;-56
2022/07/06 13:25:33;;;;;;;4.25;1.73;;;21.80;52.00;;;;;;10400161;28;20023;-55
2022/07/06 13:30:34;;;;;;;8.73;1.55;;;21.70;51.80;;;;;;10388533;28;20532;-55
2022/07/06 13:35:36;;;;;;;7.00;1.73;;;21.70;51.60;;;;;;10405775;28;20057;-52
2022/07/06 13:40:37;;;;;;;7.20;1.33;;;21.70;52.00;;;;;;10376771;28;20049;-54
2022/07/06 13:45:37;;;;;;;7.35;1.40;;;21.70;52.10;;;;;;10377243;28;20025;-53
2022/07/06 13:50:38;;;;;;;4.30;1.10;;;21.80;52.20;;;;;;10387059;28;20231;-52
2022/07/06 13:55:39;;;;;;;7.13;1.60;;;21.70;52.10;;;;;;10373796;28;20563;-54
2022/07/06 14:00:40;;;;;;;6.22;1.48;;;21.80;52.70;;;;;;10385011;28;20076;-53
2022/07/06 14:05:41;;;;;;;5.07;1.25;;;21.80;51.80;;;;;;10365294;28;20083;-53
2022/07/06 14:10:42;;;;;;;7.38;1.42;;;21.80;52.00;;;;;;10360034;28;20026;-52
2022/07/06 14:15:43;;;;;;;4.22;1.15;;;21.80;52.10;;;;;;10378162;28;20457;-52
2022/07/06 14:20:46;;;;;;;9.07;2.42;;;21.80;51.80;;;;;;10377978;28;20385;-53
2022/07/06 14:25:47;;;;;;;12.70;3.10;;;21.80;53.40;;;;;;10376437;28;20030;-54
2022/07/06 14:30:48;;;;;;;8.65;2.45;;;21.90;58.70;;;;;;10375772;28;20330;-54
2022/07/06 14:35:53;;;;;;;8.02;2.22;;;21.90;56.20;;;;;;10414373;28;20424;-56
2022/07/06 14:40:54;;;;;;;6.88;3.65;;;21.90;56.30;;;;;;10389616;28;20037;-54
2022/07/06 14:45:54;;;;;;;5.90;3.03;;;22.00;59.40;;;;;;10386284;28;20026;-55
2022/07/06 14:50:55;;;;;;;5.25;2.38;;;22.00;59.40;;;;;;10384194;28;20036;-55
2022/07/06 14:55:56;;;;;;;6.90;2.55;;;22.00;59.10;;;;;;10370564;28;20124;-55
2022/07/06 15:00:57;;;;;;;5.93;2.90;;;22.00;59.60;;;;;;10373199;28;20458;-54
2022/07/06 15:05:58;;;;;;;6.35;2.55;;;22.00;60.00;;;;;;10384935;28;20104;-55
2022/07/06 15:10:59;;;;;;;6.65;2.92;;;22.00;60.40;;;;;;10381844;28;20034;-55
2022/07/06 15:16:00;;;;;;;5.78;3.33;;;22.00;61.30;;;;;;10406954;28;20109;-55
2022/07/06 15:21:02;;;;;;;6.47;2.05;;;22.00;61.50;;;;;;10414678;28;20120;-53
2022/07/06 15:26:04;;;;;;;3.47;1.98;;;21.90;60.50;;;;;;10396453;28;20053;-54
2022/07/06 15:31:04;;;;;;;6.57;1.50;;;21.90;59.70;;;;;;10386674;28;20029;-53
2022/07/06 15:36:05;;;;;;;4.82;1.83;;;21.90;58.60;;;;;;10401960;28;20428;-53
2022/07/06 15:41:06;;;;;;;10.23;1.80;;;21.90;58.00;;;;;;10380587;28;20034;-53
2022/07/06 15:46:07;;;;;;;7.82;2.50;;;21.90;55.80;;;;;;10388528;28;20025;-52
2022/07/06 15:51:07;;;;;;;11.45;2.35;;;21.90;54.10;;;;;;10398208;28;20065;-52
2022/07/06 15:56:08;;;;;;;9.63;2.45;;;21.90;52.90;;;;;;10372132;28;20034;-52
2022/07/06 16:01:10;;;;;;;8.68;3.03;;;21.90;52.90;;;;;;10390058;28;20373;-48
2022/07/06 16:06:10;;;;;;;9.43;2.90;;;21.90;55.50;;;;;;10371878;28;20417;-53
2022/07/06 16:11:15;;;;;;;3.72;1.92;;;21.90;55.50;;;;;;10371699;28;20026;-51
2022/07/06 16:16:16;;;;;;;4.18;1.45;;;21.90;55.10;;;;;;10383243;28;20057;-51
2022/07/06 16:21:17;;;;;;;2.80;2.05;;;21.90;53.10;;;;;;10381272;28;20066;-50
2022/07/06 16:26:18;;;;;;;10.50;2.35;;;21.80;53.40;;;;;;10391665;28;20017;-47
2022/07/06 16:31:19;;;;;;;7.20;2.45;;;21.80;53.00;;;;;;10387087;28;20044;-54
2022/07/06 16:36:19;;;;;;;4.05;1.50;;;21.80;54.80;;;;;;10402808;28;20141;-52
2022/07/06 16:41:20;;;;;;;4.60;1.92;;;21.90;54.70;;;;;;10395878;28;20495;-54
2022/07/06 16:46:21;;;;;;;3.10;1.73;;;21.90;54.70;;;;;;10377252;28;20033;-51
2022/07/06 16:51:21;;;;;;;4.55;1.52;;;21.90;54.70;;;;;;10401415;28;20037;-54
2022/07/06 16:56:22;;;;;;;4.78;1.83;;;21.80;54.60;;;;;;10385697;28;20106;-53
2022/07/06 17:01:23;;;;;;;6.72;3.35;;;21.80;54.60;;;;;;10394911;28;20053;-53
2022/07/06 17:06:24;;;;;;;9.07;2.38;;;21.80;54.50;;;;;;10410442;28;20027;-53
2022/07/06 17:11:25;;;;;;;8.23;2.85;;;21.80;54.40;;;;;;10408807;28;20025;-52
2022/07/06 17:16:26;;;;;;;28.02;5.22;;;21.80;54.40;;;;;;10409187;28;20424;-49
2022/07/06 17:21:26;;;;;;;24.95;6.60;;;21.80;54.60;;;;;;10404792;28;20473;-54
2022/07/06 17:26:27;;;;;;;33.05;7.53;;;21.80;54.20;;;;;;10385266;28;20021;-53
2022/07/06 17:31:29;;;;;;;21.30;7.00;;;21.90;54.40;;;;;;10393089;28;20021;-55
2022/07/06 17:36:30;;;;;;;29.20;4.57;;;21.90;54.80;;;;;;10376042;28;20153;-56
2022/07/06 17:41:30;;;;;;;17.55;4.60;;;22.00;55.10;;;;;;10378722;28;20044;-55
2022/07/06 17:46:31;;;;;;;19.98;4.18;;;22.00;54.70;;;;;;10387098;28;20116;-54
2022/07/06 17:51:32;;;;;;;29.85;4.25;;;21.90;55.20;;;;;;10402107;28;20040;-56
2022/07/06 17:56:33;;;;;;;30.00;4.25;;;22.00;55.70;;;;;;10368608;28;20386;-57
2022/07/06 18:01:34;;;;;;;20.67;5.80;;;22.00;56.00;;;;;;10393659;28;20104;-55
2022/07/06 18:06:35;;;;;;;15.10;3.63;;;21.90;56.50;;;;;;10380827;28;20334;-59
2022/07/06 18:11:35;;;;;;;13.60;2.92;;;21.90;57.00;;;;;;10385294;28;20036;-55
2022/07/06 18:16:36;;;;;;;11.70;3.20;;;21.90;56.60;;;;;;10386510;28;20120;-56
2022/07/06 18:21:37;;;;;;;11.02;4.60;;;21.90;56.50;;;;;;10368004;28;20038;-56
2022/07/06 18:26:39;;;;;;;13.93;5.05;;;21.90;58.00;;;;;;10387208;28;20030;-56
2022/07/06 18:31:40;;;;;;;15.68;4.50;;;22.00;58.10;;;;;;10389736;28;20419;-55
2022/07/06 18:36:41;;;;;;;9.60;3.08;;;22.00;57.40;;;;;;10389291;28;20042;-56
2022/07/06 18:41:42;;;;;;;10.93;3.63;;;21.90;57.30;;;;;;10387835;28;20034;-56
2022/07/06 18:46:42;;;;;;;9.50;2.88;;;21.90;57.40;;;;;;10371288;28;20018;-56
2022/07/06 18:51:43;;;;;;;7.28;3.33;;;21.90;57.60;;;;;;10411565;28;20128;-55
2022/07/06 18:56:44;;;;;;;8.63;3.17;;;21.90;57.60;;;;;;10385751;28;20029;-55
2022/07/06 19:01:45;;;;;;;9.70;3.30;;;21.80;57.50;;;;;;10381891;28;20044;-56
2022/07/06 19:06:46;;;;;;;8.10;2.97;;;21.80;57.60;;;;;;10364740;28;20030;-56
2022/07/06 19:11:46;;;;;;;3.10;2.17;;;21.80;57.60;;;;;;10382945;28;20056;-55
2022/07/06 19:16:47;;;;;;;6.50;2.50;;;21.80;57.60;;;;;;10386332;28;20039;-56
2022/07/06 19:21:48;;;;;;;5.85;2.90;;;21.80;57.70;;;;;;10391074;28;20033;-55
2022/07/06 19:26:48;;;;;;;5.68;2.80;;;21.80;57.70;;;;;;10389165;28;20037;-55
2022/07/06 19:31:49;;;;;;;3.72;2.00;;;21.80;57.70;;;;;;10392533;28;20030;-56
2022/07/06 19:36:50;;;;;;;6.00;2.35;;;21.80;57.70;;;;;;10360795;28;20042;-56
2022/07/06 19:41:51;;;;;;;3.50;2.00;;;21.80;57.70;;;;;;10387096;28;20042;-55
2022/07/06 19:46:51;;;;;;;3.88;2.28;;;21.80;57.40;;;;;;10379908;28;20037;-55
2022/07/06 19:51:52;;;;;;;5.55;2.40;;;21.70;57.60;;;;;;10392616;28;20162;-56
2022/07/06 19:56:53;;;;;;;4.68;1.88;;;21.80;57.80;;;;;;10384612;28;20033;-55
2022/07/06 20:01:54;;;;;;;4.72;1.95;;;21.80;57.90;;;;;;10388683;28;20038;-55
2022/07/06 20:06:54;;;;;;;5.63;2.28;;;21.80;58.00;;;;;;10384915;28;20133;-56
2022/07/06 20:11:55;;;;;;;3.63;2.05;;;21.70;58.00;;;;;;10385397;28;20056;-54
2022/07/06 20:16:56;;;;;;;3.25;1.60;;;21.70;58.00;;;;;;10383608;28;20037;-55
2022/07/06 20:21:56;;;;;;;2.78;1.70;;;21.80;58.10;;;;;;10382269;28;20034;-55
2022/07/06 20:26:57;;;;;;;4.55;1.98;;;21.80;58.10;;;;;;10399035;28;20481;-54
2022/07/06 20:31:58;;;;;;;5.00;1.90;;;21.70;58.00;;;;;;10390873;28;20515;-56
2022/07/06 20:36:59;;;;;;;2.15;1.33;;;21.70;58.00;;;;;;10373627;28;20425;-55
2022/07/06 20:42:00;;;;;;;3.65;1.88;;;21.80;58.10;;;;;;10371070;28;20448;-55
2022/07/06 20:47:01;;;;;;;2.88;1.58;;;21.70;58.00;;;;;;10384131;28;20310;-56
2022/07/06 20:52:02;;;;;;;2.20;1.58;;;21.70;58.00;;;;;;10383131;28;20534;-56
2022/07/06 20:57:03;;;;;;;2.70;1.70;;;21.70;58.00;;;;;;10398295;28;20116;-59
2022/07/06 21:02:04;;;;;;;4.85;2.10;;;21.70;58.00;;;;;;10388025;28;20520;-58
2022/07/06 21:07:05;;;;;;;2.00;1.20;;;21.70;58.00;;;;;;10384470;28;20030;-58
2022/07/06 21:12:07;;;;;;;2.28;1.50;;;21.70;58.00;;;;;;10401139;28;20037;-59
2022/07/06 21:17:08;;;;;;;3.22;1.77;;;21.70;58.00;;;;;;10363048;28;20048;-57
2022/07/06 21:22:08;;;;;;;2.60;1.20;;;21.70;58.00;;;;;;10392182;28;20048;-59
2022/07/06 21:27:09;;;;;;;2.10;1.67;;;21.70;58.00;;;;;;10367005;28;20388;-58
2022/07/06 21:32:10;;;;;;;2.63;1.40;;;21.70;58.00;;;;;;10392879;28;20038;-58
2022/07/06 21:37:10;;;;;;;1.75;1.10;;;21.70;58.10;;;;;;10385710;28;20071;-58
2022/07/06 21:42:11;;;;;;;2.45;1.50;;;21.70;58.50;;;;;;10377210;28;20029;-57
2022/07/06 21:47:12;;;;;;;2.03;1.45;;;21.70;58.40;;;;;;10393009;28;20029;-58
2022/07/06 21:52:13;;;;;;;2.03;1.70;;;21.70;58.50;;;;;;10392694;28;20393;-58
2022/07/06 21:57:13;;;;;;;1.58;1.30;;;21.70;58.70;;;;;;10383022;28;20042;-58
2022/07/06 22:02:14;;;;;;;3.17;1.60;;;21.70;58.60;;;;;;10371624;28;20138;-59
2022/07/06 22:07:15;;;;;;;2.17;1.48;;;21.70;58.50;;;;;;10359113;28;20045;-57
2022/07/06 22:12:16;;;;;;;4.47;2.38;;;21.70;58.40;;;;;;10368743;28;20037;-58
2022/07/06 22:17:17;;;;;;;3.70;1.50;;;21.70;58.40;;;;;;10403434;28;20037;-58
2022/07/06 22:22:18;;;;;;;2.65;1.15;;;21.70;58.50;;;;;;10380314;28;20033;-58
2022/07/06 22:27:19;;;;;;;1.60;1.17;;;21.70;58.40;;;;;;10400149;28;20029;-56
2022/07/06 22:32:20;;;;;;;2.20;1.20;;;21.70;58.50;;;;;;10395851;28;20235;-58
2022/07/06 22:37:21;;;;;;;1.90;1.33;;;21.70;58.50;;;;;;10396053;28;20056;-59
2022/07/06 22:42:21;;;;;;;2.95;1.25;;;21.70;58.50;;;;;;10372149;28;20396;-59
2022/07/06 22:47:22;;;;;;;2.63;1.60;;;21.70;58.60;;;;;;10379880;28;20113;-58
2022/07/06 22:52:23;;;;;;;1.88;1.27;;;21.70;58.60;;;;;;10394360;28;20065;-57
2022/07/06 22:57:23;;;;;;;3.60;1.75;;;21.70;58.60;;;;;;10377755;28;20041;-57
2022/07/06 23:02:25;;;;;;;2.67;1.17;;;21.70;58.70;;;;;;10387306;28;20061;-58
2022/07/06 23:07:26;;;;;;;1.40;1.08;;;21.70;58.80;;;;;;10391256;28;20017;-59
2022/07/06 23:12:26;;;;;;;2.15;1.35;;;21.70;59.00;;;;;;10391834;28;20026;-58
2022/07/06 23:17:27;;;;;;;1.67;1.00;;;21.70;59.20;;;;;;10392680;28;20113;-59
2022/07/06 23:22:28;;;;;;;1.80;1.20;;;21.70;59.20;;;;;;10370868;28;20092;-58
2022/07/06 23:27:28;;;;;;;1.20;1.05;;;21.70;59.40;;;;;;10393900;28;20038;-58
2022/07/06 23:32:29;;;;;;;1.90;1.25;;;21.70;59.00;;;;;;10397267;28;20570;-59
2022/07/06 23:37:30;;;;;;;4.00;1.30;;;21.70;59.20;;;;;;10385284;28;20481;-58
2022/07/06 23:42:31;;;;;;;1.67;1.10;;;21.70;59.00;;;;;;10386382;28;20034;-58
2022/07/06 23:47:35;;;;;;;1.65;1.08;;;21.70;59.00;;;;;;10391577;28;20030;-59
2022/07/06 23:52:36;;;;;;;1.95;1.10;;;21.70;59.10;;;;;;10391168;28;20084;-57
2022/07/06 23:57:37;;;;;;;1.63;1.30;;;21.60;59.00;;;;;;10394326;28;20743;-59
